createdAt,value
2023-01-28T00:00:10.563Z,83.17
2023-01-28T00:01:10.837Z,82.75
2023-01-28T00:02:11.096Z,82.65
2023-01-28T00:03:11.309Z,82.75
2023-01-28T00:04:11.559Z,82.65
2023-01-28T00:05:12.413Z,82.54
2023-01-28T00:06:12.069Z,82.44
2023-01-28T00:07:12.296Z,82.86
2023-01-28T00:08:12.551Z,82.75
2023-01-28T00:09:12.799Z,82.75
2023-01-28T00:10:13.064Z,82.86
2023-01-28T00:11:13.384Z,81.75
2023-01-28T00:12:13.549Z,81.19
2023-01-28T00:13:13.817Z,81.71
2023-01-28T00:14:14.077Z,81.92
2023-01-28T00:15:14.738Z,81.71
2023-01-28T00:16:14.676Z,81.71
2023-01-28T00:17:14.882Z,81.81
2023-01-28T00:18:15.112Z,81.92
2023-01-28T00:19:15.370Z,82.13
2023-01-28T00:20:15.635Z,82.34
2023-01-28T00:21:15.920Z,82.34
2023-01-28T00:22:16.212Z,82.54
2023-01-28T00:23:16.440Z,82.44
2023-01-28T00:24:16.757Z,82.65
2023-01-28T00:25:17.317Z,82.96
2023-01-28T00:26:17.250Z,82.65
2023-01-28T00:27:17.555Z,82.65
2023-01-28T00:28:17.803Z,83.17
2023-01-28T00:29:18.066Z,82.65
2023-01-28T00:30:18.343Z,83.17
2023-01-28T00:31:18.621Z,82.65
2023-01-28T00:32:18.941Z,82.96
2023-01-28T00:33:19.150Z,83.27
2023-01-28T00:34:19.419Z,83.17
2023-01-28T00:35:19.706Z,83.17
2023-01-28T00:36:20.009Z,83.31
2023-01-28T00:37:20.303Z,82.44
2023-01-28T00:38:20.561Z,82.44
2023-01-28T00:39:20.830Z,82.13
2023-01-28T00:40:21.136Z,82.44
2023-01-28T00:41:21.397Z,82.96
2023-01-28T00:42:21.711Z,83.17
2023-01-28T00:43:21.957Z,83.37
2023-01-28T00:44:22.233Z,83.58
2023-01-28T00:45:22.504Z,84.00
2023-01-28T00:46:22.965Z,83.69
2023-01-28T00:47:23.057Z,84.00
2023-01-28T00:48:23.301Z,83.69
2023-01-28T00:49:23.624Z,83.80
2023-01-28T00:50:23.849Z,83.80
2023-01-28T00:51:24.118Z,83.80
2023-01-28T00:52:24.403Z,83.90
2023-01-28T00:53:24.646Z,84.11
2023-01-28T00:54:24.954Z,84.00
2023-01-28T00:55:25.194Z,83.69
2023-01-28T00:56:25.497Z,83.69
2023-01-28T00:57:25.745Z,83.58
2023-01-28T00:58:26.028Z,84.00
2023-01-28T00:59:26.320Z,83.73
2023-01-28T01:00:26.624Z,84.04
2023-01-28T01:01:26.919Z,84.00
2023-01-28T01:02:27.273Z,83.73
2023-01-28T01:03:27.426Z,83.62
2023-01-28T01:04:27.701Z,83.83
2023-01-28T01:05:27.995Z,83.73
2023-01-28T01:06:28.388Z,83.94
2023-01-28T01:07:28.529Z,84.25
2023-01-28T01:08:28.818Z,83.94
2023-01-28T01:09:29.097Z,84.56
2023-01-28T01:10:29.379Z,83.31
2023-01-28T01:11:29.776Z,84.14
2023-01-28T01:12:30.016Z,84.35
2023-01-28T01:13:30.235Z,84.45
2023-01-28T01:14:30.513Z,84.35
2023-01-28T01:15:30.868Z,83.31
2023-01-28T01:16:31.093Z,83.52
2023-01-28T01:17:31.427Z,84.45
2023-01-28T01:18:31.658Z,84.04
2023-01-28T01:19:31.936Z,83.87
2023-01-28T01:20:32.229Z,84.56
2023-01-28T01:21:32.540Z,83.45
2023-01-28T01:22:32.871Z,83.66
2023-01-28T01:23:33.072Z,83.35
2023-01-28T01:24:33.348Z,84.50
2023-01-28T01:25:33.648Z,84.39
2023-01-28T01:26:33.930Z,84.50
2023-01-28T01:27:34.234Z,84.33
2023-01-28T01:28:34.505Z,84.43
2023-01-28T01:29:34.756Z,84.50
2023-01-28T01:30:35.072Z,84.53
2023-01-28T01:31:35.446Z,85.16
2023-01-28T01:32:35.654Z,85.47
2023-01-28T01:33:35.974Z,84.33
2023-01-28T01:34:36.256Z,84.47
2023-01-28T01:35:36.547Z,84.64
2023-01-28T01:36:36.835Z,84.43
2023-01-28T01:37:37.124Z,84.57
2023-01-28T01:38:37.450Z,85.41
2023-01-28T01:39:37.754Z,85.61
2023-01-28T01:40:38.020Z,85.20
2023-01-28T01:41:38.307Z,85.86
2023-01-28T01:42:38.594Z,85.51
2023-01-28T01:43:38.867Z,85.55
2023-01-28T01:44:39.196Z,84.47
2023-01-28T01:45:39.473Z,84.72
2023-01-28T01:46:39.814Z,85.55
2023-01-28T01:47:40.094Z,85.76
2023-01-28T01:48:40.383Z,85.44
2023-01-28T01:49:40.711Z,85.76
2023-01-28T01:50:40.973Z,85.55
2023-01-28T01:51:41.267Z,85.55
2023-01-28T01:52:41.555Z,85.65
2023-01-28T01:53:41.838Z,85.97
2023-01-28T01:54:42.160Z,85.97
2023-01-28T01:55:42.417Z,85.86
2023-01-28T01:56:42.696Z,86.07
2023-01-28T01:57:42.983Z,85.97
2023-01-28T01:58:43.297Z,86.07
2023-01-28T01:59:43.715Z,85.97
2023-01-28T02:00:43.870Z,86.28
2023-01-28T02:01:44.142Z,86.69
2023-01-28T02:02:44.462Z,86.59
2023-01-28T02:03:44.773Z,86.69
2023-01-28T02:04:45.046Z,86.28
2023-01-28T02:05:45.334Z,86.18
2023-01-28T02:06:45.633Z,86.49
2023-01-28T02:07:45.948Z,85.86
2023-01-28T02:08:46.251Z,85.90
2023-01-28T02:09:46.593Z,85.97
2023-01-28T02:10:46.862Z,86.00
2023-01-28T02:11:47.178Z,86.28
2023-01-28T02:12:47.594Z,86.38
2023-01-28T02:13:47.797Z,86.49
2023-01-28T02:14:48.105Z,86.49
2023-01-28T02:15:48.425Z,86.38
2023-01-28T02:16:48.827Z,86.28
2023-01-28T02:17:49.103Z,86.28
2023-01-28T02:18:49.330Z,86.59
2023-01-28T02:19:49.613Z,86.59
2023-01-28T02:20:49.938Z,86.18
2023-01-28T02:21:50.167Z,86.66
2023-01-28T02:22:50.446Z,86.59
2023-01-28T02:23:50.971Z,86.66
2023-01-28T02:24:51.022Z,86.35
2023-01-28T02:25:51.426Z,86.28
2023-01-28T02:26:51.613Z,86.24
2023-01-28T02:27:51.918Z,86.24
2023-01-28T02:28:52.203Z,86.55
2023-01-28T02:29:52.494Z,86.76
2023-01-28T02:30:52.958Z,86.45
2023-01-28T02:31:53.256Z,86.55
2023-01-28T02:32:53.410Z,86.13
2023-01-28T02:33:53.680Z,86.24
2023-01-28T02:34:53.960Z,86.55
2023-01-28T02:35:54.281Z,86.76
2023-01-28T02:36:54.628Z,86.66
2023-01-28T02:37:54.828Z,86.35
2023-01-28T02:38:55.113Z,86.35
2023-01-28T02:39:55.395Z,86.61
2023-01-28T02:40:55.666Z,86.76
2023-01-28T02:41:56.234Z,86.45
2023-01-28T02:42:56.253Z,86.35
2023-01-28T02:43:56.524Z,86.35
2023-01-28T02:44:56.789Z,85.93
2023-01-28T02:45:57.171Z,86.13
2023-01-28T02:46:57.401Z,86.03
2023-01-28T02:47:57.699Z,85.82
2023-01-28T02:48:57.925Z,85.93
2023-01-28T02:49:58.224Z,85.93
2023-01-28T02:50:58.500Z,85.10
2023-01-28T02:51:58.776Z,85.30
2023-01-28T02:52:59.091Z,85.93
2023-01-28T02:53:59.344Z,85.93
2023-01-28T02:54:59.634Z,86.03
2023-01-28T02:55:59.931Z,86.03
2023-01-28T02:57:00.193Z,85.51
2023-01-28T02:58:00.517Z,85.61
2023-01-28T02:59:00.748Z,85.51
2023-01-28T03:00:01.028Z,85.41
2023-01-28T03:01:01.319Z,85.41
2023-01-28T03:02:01.608Z,86.03
2023-01-28T03:03:01.961Z,85.82
2023-01-28T03:04:02.177Z,85.93
2023-01-28T03:05:02.456Z,85.93
2023-01-28T03:06:02.746Z,85.93
2023-01-28T03:07:03.028Z,85.93
2023-01-28T03:08:03.350Z,86.03
2023-01-28T03:09:03.633Z,86.24
2023-01-28T03:10:03.873Z,85.51
2023-01-28T03:11:04.151Z,86.13
2023-01-28T03:12:04.436Z,86.13
2023-01-28T03:13:04.810Z,86.03
2023-01-28T03:14:05.017Z,84.88
2023-01-28T03:15:05.321Z,85.30
2023-01-28T03:16:05.671Z,85.93
2023-01-28T03:17:05.898Z,86.35
2023-01-28T03:18:06.245Z,86.13
2023-01-28T03:19:06.515Z,86.03
2023-01-28T03:20:06.844Z,86.24
2023-01-28T03:21:07.093Z,86.35
2023-01-28T03:22:07.393Z,86.35
2023-01-28T03:23:08.150Z,85.41
2023-01-28T03:24:08.001Z,85.93
2023-01-28T03:25:08.371Z,85.93
2023-01-28T03:26:08.565Z,86.35
2023-01-28T03:27:08.848Z,86.66
2023-01-28T03:28:09.165Z,86.13
2023-01-28T03:29:09.469Z,85.93
2023-01-28T03:30:09.949Z,85.82
2023-01-28T03:31:10.114Z,86.03
2023-01-28T03:32:10.491Z,85.93
2023-01-28T03:33:10.726Z,85.82
2023-01-28T03:34:20.125Z,86.13
2023-01-28T03:35:11.410Z,86.28
2023-01-28T03:36:11.558Z,85.82
2023-01-28T03:37:11.871Z,85.93
2023-01-28T03:38:12.174Z,86.03
2023-01-28T03:39:12.471Z,86.03
2023-01-28T03:40:12.891Z,85.82
2023-01-28T03:41:13.087Z,85.82
2023-01-28T03:42:13.395Z,86.13
2023-01-28T03:43:13.683Z,86.24
2023-01-28T03:44:13.988Z,86.07
2023-01-28T03:45:14.719Z,85.93
2023-01-28T03:46:14.664Z,86.28
2023-01-28T03:47:14.907Z,85.97
2023-01-28T03:48:15.257Z,85.86
2023-01-28T03:49:15.503Z,86.07
2023-01-28T03:50:15.830Z,85.97
2023-01-28T03:51:16.089Z,86.00
2023-01-28T03:52:16.379Z,86.21
2023-01-28T03:53:17.162Z,86.43
2023-01-28T03:54:16.931Z,86.53
2023-01-28T03:55:17.442Z,86.53
2023-01-28T03:56:17.498Z,86.43
2023-01-28T03:57:17.768Z,86.32
2023-01-28T03:58:18.076Z,86.46
2023-01-28T03:59:18.340Z,86.67
2023-01-28T04:00:18.597Z,86.67
2023-01-28T04:01:18.914Z,86.77
2023-01-28T04:02:19.186Z,87.09
2023-01-28T04:03:19.531Z,87.45
2023-01-28T04:04:19.807Z,87.19
2023-01-28T04:05:20.070Z,87.30
2023-01-28T04:06:20.343Z,87.51
2023-01-28T04:07:20.637Z,87.34
2023-01-28T04:08:20.945Z,88.45
2023-01-28T04:09:21.293Z,88.34
2023-01-28T04:10:21.531Z,88.39
2023-01-28T04:11:21.843Z,87.23
2023-01-28T04:12:22.149Z,87.23
2023-01-28T04:13:22.456Z,87.34
2023-01-28T04:14:22.818Z,87.23
2023-01-28T04:15:23.081Z,87.55
2023-01-28T04:16:23.471Z,87.65
2023-01-28T04:17:23.668Z,88.28
2023-01-28T04:18:24.002Z,88.49
2023-01-28T04:19:24.302Z,88.21
2023-01-28T04:20:24.616Z,88.32
2023-01-28T04:21:24.879Z,88.32
2023-01-28T04:22:25.177Z,88.11
2023-01-28T04:23:25.474Z,88.42
2023-01-28T04:24:25.876Z,88.42
2023-01-28T04:25:26.094Z,88.32
2023-01-28T04:26:26.471Z,88.11
2023-01-28T04:27:26.643Z,88.42
2023-01-28T04:28:26.937Z,88.53
2023-01-28T04:29:27.253Z,88.46
2023-01-28T04:30:27.633Z,88.15
2023-01-28T04:31:27.850Z,88.04
2023-01-28T04:32:28.089Z,88.26
2023-01-28T04:33:28.395Z,88.15
2023-01-28T04:34:28.701Z,88.36
2023-01-28T04:35:28.950Z,88.19
2023-01-28T04:36:29.305Z,88.46
2023-01-28T04:37:29.584Z,88.40
2023-01-28T04:38:29.858Z,88.29
2023-01-28T04:39:30.170Z,88.71
2023-01-28T04:40:30.441Z,88.61
2023-01-28T04:41:30.752Z,88.71
2023-01-28T04:42:31.057Z,88.71
2023-01-28T04:43:31.361Z,89.03
2023-01-28T04:44:31.764Z,88.92
2023-01-28T04:45:31.960Z,88.82
2023-01-28T04:46:32.350Z,88.82
2023-01-28T04:47:32.548Z,88.40
2023-01-28T04:48:32.865Z,88.50
2023-01-28T04:49:33.233Z,88.61
2023-01-28T04:50:33.421Z,88.61
2023-01-28T04:51:33.717Z,88.61
2023-01-28T04:52:33.991Z,88.40
2023-01-28T04:53:34.289Z,88.50
2023-01-28T04:54:34.603Z,88.54
2023-01-28T04:55:34.863Z,88.96
2023-01-28T04:56:35.116Z,89.07
2023-01-28T04:57:35.416Z,88.86
2023-01-28T04:58:35.745Z,88.75
2023-01-28T04:59:36.034Z,89.28
2023-01-28T05:00:36.307Z,89.70
2023-01-28T05:01:36.629Z,89.28
2023-01-28T05:02:36.919Z,89.28
2023-01-28T05:03:37.228Z,89.48
2023-01-28T05:04:37.579Z,89.48
2023-01-28T05:05:37.948Z,89.70
2023-01-28T05:06:38.111Z,88.82
2023-01-28T05:07:38.407Z,89.38
2023-01-28T05:08:38.700Z,89.17
2023-01-28T05:09:39.005Z,89.28
2023-01-28T05:10:39.354Z,88.75
2023-01-28T05:11:39.614Z,88.86
2023-01-28T05:12:39.928Z,88.96
2023-01-28T05:13:40.241Z,88.96
2023-01-28T05:14:40.517Z,88.86
2023-01-28T05:15:40.861Z,88.86
2023-01-28T05:16:41.198Z,88.54
2023-01-28T05:17:41.507Z,88.54
2023-01-28T05:18:44.629Z,89.07
2023-01-28T05:19:42.031Z,88.75
2023-01-28T05:20:42.337Z,88.86
2023-01-28T05:21:42.664Z,89.32
2023-01-28T05:22:42.974Z,88.86
2023-01-28T05:23:43.242Z,88.86
2023-01-28T05:24:43.539Z,89.38
2023-01-28T05:25:43.845Z,89.53
2023-01-28T05:26:44.152Z,89.22
2023-01-28T05:27:44.428Z,89.53
2023-01-28T05:28:44.770Z,89.63
2023-01-28T05:29:45.060Z,89.42
2023-01-28T05:30:45.392Z,89.22
2023-01-28T05:31:45.640Z,88.90
2023-01-28T05:32:45.990Z,89.73
2023-01-28T05:33:46.250Z,89.22
2023-01-28T05:34:46.551Z,89.11
2023-01-28T05:35:46.815Z,89.15
2023-01-28T05:36:47.119Z,89.32
2023-01-28T05:37:47.500Z,89.22
2023-01-28T05:38:47.759Z,89.11
2023-01-28T05:39:48.017Z,89.11
2023-01-28T05:40:48.309Z,89.42
2023-01-28T05:41:48.615Z,89.63
2023-01-28T05:42:48.923Z,89.63
2023-01-28T05:43:49.257Z,89.36
2023-01-28T05:44:49.552Z,89.47
2023-01-28T05:45:49.897Z,89.42
2023-01-28T05:46:50.201Z,89.36
2023-01-28T05:47:50.530Z,89.22
2023-01-28T05:48:50.821Z,89.63
2023-01-28T05:49:51.121Z,89.47
2023-01-28T05:50:51.441Z,89.15
2023-01-28T05:51:51.774Z,89.47
2023-01-28T05:52:52.209Z,89.67
2023-01-28T05:53:52.403Z,89.78
2023-01-28T05:54:52.736Z,89.04
2023-01-28T05:55:53.052Z,89.67
2023-01-28T05:56:53.374Z,89.36
2023-01-28T05:57:53.741Z,89.36
2023-01-28T05:58:54.025Z,89.36
2023-01-28T05:59:54.374Z,89.78
2023-01-28T06:00:54.707Z,89.57
2023-01-28T06:01:54.992Z,89.36
2023-01-28T06:02:55.308Z,88.84
2023-01-28T06:03:55.670Z,88.87
2023-01-28T06:04:56.020Z,89.40
2023-01-28T06:05:56.272Z,89.50
2023-01-28T06:06:56.586Z,89.40
2023-01-28T06:07:56.917Z,89.50
2023-01-28T06:08:57.265Z,89.50
2023-01-28T06:09:57.586Z,89.29
2023-01-28T06:10:57.868Z,89.50
2023-01-28T06:11:58.172Z,89.61
2023-01-28T06:12:58.452Z,89.82
2023-01-28T06:13:58.716Z,89.61
2023-01-28T06:14:59.035Z,89.72
2023-01-28T06:15:59.329Z,89.34
2023-01-28T06:16:59.585Z,88.92
2023-01-28T06:17:59.840Z,88.92
2023-01-28T06:19:00.128Z,89.02
2023-01-28T06:20:00.375Z,89.54
2023-01-28T06:21:00.654Z,89.29
2023-01-28T06:22:00.993Z,89.75
2023-01-28T06:23:01.180Z,90.07
2023-01-28T06:24:01.525Z,89.92
2023-01-28T06:25:01.746Z,89.86
2023-01-28T06:26:02.019Z,89.97
2023-01-28T06:27:02.297Z,89.97
2023-01-28T06:28:02.525Z,90.07
2023-01-28T06:29:02.795Z,90.03
2023-01-28T06:30:03.084Z,90.07
2023-01-28T06:31:03.459Z,90.07
2023-01-28T06:32:03.750Z,90.17
2023-01-28T06:33:03.891Z,90.07
2023-01-28T06:34:04.168Z,90.17
2023-01-28T06:35:04.414Z,89.97
2023-01-28T06:36:04.670Z,89.86
2023-01-28T06:37:04.973Z,90.17
2023-01-28T06:38:05.266Z,89.86
2023-01-28T06:39:05.486Z,89.44
2023-01-28T06:40:05.752Z,89.23
2023-01-28T06:41:06.073Z,89.86
2023-01-28T06:42:06.347Z,89.97
2023-01-28T06:43:06.603Z,90.07
2023-01-28T06:44:06.863Z,90.17
2023-01-28T06:45:07.115Z,89.97
2023-01-28T06:46:07.424Z,89.65
2023-01-28T06:47:07.655Z,89.23
2023-01-28T06:48:08.884Z,89.54
2023-01-28T06:49:08.253Z,89.54
2023-01-28T06:50:08.455Z,89.44
2023-01-28T06:51:08.721Z,89.54
2023-01-28T06:52:08.986Z,89.75
2023-01-28T06:53:09.287Z,89.65
2023-01-28T06:54:09.531Z,89.44
2023-01-28T06:55:09.803Z,89.12
2023-01-28T06:56:10.110Z,88.81
2023-01-28T06:57:10.333Z,89.02
2023-01-28T06:58:10.623Z,89.02
2023-01-28T06:59:10.886Z,89.54
2023-01-28T07:00:11.187Z,88.92
2023-01-28T07:01:11.557Z,89.12
2023-01-28T07:02:11.802Z,88.85
2023-01-28T07:03:12.246Z,89.06
2023-01-28T07:04:12.443Z,88.92
2023-01-28T07:05:12.730Z,89.02
2023-01-28T07:06:13.105Z,89.27
2023-01-28T07:07:13.347Z,88.81
2023-01-28T07:08:13.657Z,88.71
2023-01-28T07:09:14.153Z,88.71
2023-01-28T07:10:14.664Z,88.81
2023-01-28T07:11:14.652Z,89.37
2023-01-28T07:12:14.869Z,89.23
2023-01-28T07:13:15.178Z,88.96
2023-01-28T07:14:15.488Z,89.34
2023-01-28T07:15:15.806Z,89.48
2023-01-28T07:16:16.117Z,89.37
2023-01-28T07:17:16.468Z,89.90
2023-01-28T07:18:16.714Z,89.48
2023-01-28T07:19:17.053Z,90.11
2023-01-28T07:20:17.769Z,89.79
2023-01-28T07:21:17.697Z,90.32
2023-01-28T07:22:17.977Z,89.90
2023-01-28T07:23:18.274Z,90.00
2023-01-28T07:24:18.631Z,90.22
2023-01-28T07:25:18.874Z,89.97
2023-01-28T07:26:19.204Z,90.42
2023-01-28T07:27:19.487Z,90.00
2023-01-28T07:28:19.778Z,89.97
2023-01-28T07:29:20.076Z,89.75
2023-01-28T07:30:20.401Z,89.48
2023-01-28T07:31:20.820Z,89.65
2023-01-28T07:32:20.997Z,89.59
2023-01-28T07:33:21.306Z,89.79
2023-01-28T07:34:21.616Z,89.44
2023-01-28T07:35:21.932Z,89.27
2023-01-28T07:36:22.199Z,89.34
2023-01-28T07:37:22.513Z,89.37
2023-01-28T07:38:22.846Z,89.69
2023-01-28T07:39:23.148Z,89.79
2023-01-28T07:40:23.515Z,89.48
2023-01-28T07:41:23.764Z,89.48
2023-01-28T07:42:24.185Z,89.65
2023-01-28T07:43:24.341Z,89.90
2023-01-28T07:44:24.634Z,89.75
2023-01-28T07:45:24.929Z,90.17
2023-01-28T07:46:25.212Z,89.86
2023-01-28T07:47:25.570Z,90.00
2023-01-28T07:48:25.762Z,89.97
2023-01-28T07:49:26.095Z,89.86
2023-01-28T07:50:26.325Z,90.28
2023-01-28T07:51:26.608Z,89.97
2023-01-28T07:52:26.920Z,90.17
2023-01-28T07:53:27.167Z,89.97
2023-01-28T07:54:27.525Z,89.97
2023-01-28T07:55:30.963Z,89.75
2023-01-28T07:56:28.028Z,90.17
2023-01-28T07:57:28.304Z,89.75
2023-01-28T07:58:28.597Z,90.17
2023-01-28T07:59:28.903Z,89.97
2023-01-28T08:00:29.139Z,90.07
2023-01-28T08:01:29.486Z,90.07
2023-01-28T08:02:29.692Z,89.92
2023-01-28T08:03:29.994Z,90.07
2023-01-28T08:04:30.362Z,89.75
2023-01-28T08:05:30.733Z,90.07
2023-01-28T08:06:30.820Z,90.17
2023-01-28T08:07:31.091Z,90.28
2023-01-28T08:08:31.362Z,90.59
2023-01-28T08:09:31.636Z,90.66
2023-01-28T08:10:31.934Z,90.80
2023-01-28T08:11:32.171Z,90.97
2023-01-28T08:12:32.463Z,90.59
2023-01-28T08:13:32.702Z,90.17
2023-01-28T08:14:32.964Z,90.28
2023-01-28T08:15:35.055Z,90.87
2023-01-28T08:16:33.515Z,90.66
2023-01-28T08:17:33.781Z,90.66
2023-01-28T08:18:34.051Z,90.55
2023-01-28T08:19:34.342Z,91.03
2023-01-28T08:20:34.597Z,90.97
2023-01-28T08:21:34.849Z,91.03
2023-01-28T08:22:35.133Z,90.61
2023-01-28T08:23:35.370Z,90.83
2023-01-28T08:24:35.656Z,90.68
2023-01-28T08:25:35.910Z,90.99
2023-01-28T08:26:36.275Z,91.20
2023-01-28T08:27:36.477Z,91.47
2023-01-28T08:28:36.745Z,91.52
2023-01-28T08:29:37.011Z,91.27
2023-01-28T08:30:37.282Z,91.58
2023-01-28T08:31:37.636Z,91.54
2023-01-28T08:32:37.819Z,91.02
2023-01-28T08:33:38.105Z,91.75
2023-01-28T08:34:38.419Z,90.97
2023-01-28T08:35:38.687Z,91.14
2023-01-28T08:36:38.976Z,91.25
2023-01-28T08:37:39.219Z,91.35
2023-01-28T08:38:39.551Z,91.35
2023-01-28T08:39:39.754Z,91.46
2023-01-28T08:40:40.032Z,90.78
2023-01-28T08:41:40.310Z,90.68
2023-01-28T08:42:40.582Z,90.68
2023-01-28T08:43:40.871Z,90.47
2023-01-28T08:44:41.103Z,90.26
2023-01-28T08:45:41.361Z,90.01
2023-01-28T08:46:41.779Z,90.01
2023-01-28T08:47:41.902Z,89.70
2023-01-28T08:48:42.168Z,90.01
2023-01-28T08:49:42.453Z,89.18
2023-01-28T08:50:42.703Z,88.87
2023-01-28T08:51:42.971Z,89.18
2023-01-28T08:52:43.204Z,89.39
2023-01-28T08:53:43.469Z,89.18
2023-01-28T08:54:43.742Z,88.97
2023-01-28T08:55:44.001Z,89.07
2023-01-28T08:56:44.358Z,88.80
2023-01-28T08:57:44.547Z,88.87
2023-01-28T08:58:44.809Z,88.76
2023-01-28T08:59:45.239Z,88.87
2023-01-28T09:00:45.336Z,88.97
2023-01-28T09:01:45.880Z,88.97
2023-01-28T09:02:45.889Z,89.07
2023-01-28T09:03:46.205Z,88.45
2023-01-28T09:04:46.468Z,88.76
2023-01-28T09:05:46.718Z,88.65
2023-01-28T09:06:47.055Z,88.76
2023-01-28T09:07:47.265Z,88.76
2023-01-28T09:08:47.532Z,88.55
2023-01-28T09:09:47.803Z,88.45
2023-01-28T09:10:48.082Z,88.97
2023-01-28T09:11:48.475Z,88.45
2023-01-28T09:12:48.586Z,88.34
2023-01-28T09:13:48.844Z,88.13
2023-01-28T09:14:49.108Z,88.13
2023-01-28T09:15:49.394Z,87.93
2023-01-28T09:16:49.661Z,87.93
2023-01-28T09:17:49.923Z,88.24
2023-01-28T09:18:50.216Z,87.99
2023-01-28T09:19:50.484Z,88.41
2023-01-28T09:20:50.745Z,87.99
2023-01-28T09:21:51.020Z,88.09
2023-01-28T09:22:51.299Z,88.30
2023-01-28T09:23:51.600Z,87.88
2023-01-28T09:24:51.846Z,88.20
2023-01-28T09:25:52.165Z,87.99
2023-01-28T09:26:52.404Z,88.51
2023-01-28T09:27:52.683Z,88.57
2023-01-28T09:28:52.976Z,88.37
2023-01-28T09:29:53.264Z,88.06
2023-01-28T09:30:53.905Z,87.22
2023-01-28T09:31:53.872Z,86.97
2023-01-28T09:32:54.067Z,87.18
2023-01-28T09:33:54.327Z,87.60
2023-01-28T09:34:54.647Z,88.12
2023-01-28T09:35:54.975Z,88.22
2023-01-28T09:36:55.123Z,88.32
2023-01-28T09:37:55.393Z,86.97
2023-01-28T09:38:55.666Z,86.83
2023-01-28T09:39:55.942Z,86.72
2023-01-28T09:40:56.340Z,86.72
2023-01-28T09:41:56.487Z,86.51
2023-01-28T09:42:56.762Z,86.93
2023-01-28T09:43:57.029Z,86.30
2023-01-28T09:44:57.343Z,86.51
2023-01-28T09:45:57.584Z,85.47
2023-01-28T09:46:58.062Z,85.47
2023-01-28T09:47:58.095Z,85.47
2023-01-28T09:48:58.441Z,84.28
2023-01-28T09:49:58.655Z,85.78
2023-01-28T09:50:58.894Z,85.53
2023-01-28T09:51:59.186Z,85.47
2023-01-28T09:52:59.443Z,85.02
2023-01-28T09:53:59.699Z,85.33
2023-01-28T09:54:59.985Z,85.53
2023-01-28T09:56:00.263Z,85.43
2023-01-28T09:57:00.494Z,85.53
2023-01-28T09:58:00.785Z,85.33
2023-01-28T09:59:01.019Z,85.43
2023-01-28T10:00:01.284Z,85.12
2023-01-28T10:01:01.603Z,84.81
2023-01-28T10:02:01.820Z,84.39
2023-01-28T10:03:02.224Z,85.53
2023-01-28T10:04:02.458Z,85.43
2023-01-28T10:05:02.684Z,85.22
2023-01-28T10:06:02.916Z,85.22
2023-01-28T10:07:03.179Z,85.33
2023-01-28T10:08:03.478Z,84.81
2023-01-28T10:09:03.737Z,84.39
2023-01-28T10:10:03.972Z,85.39
2023-01-28T10:11:04.238Z,85.71
2023-01-28T10:12:04.502Z,85.56
2023-01-28T10:13:04.770Z,85.35
2023-01-28T10:14:05.120Z,84.94
2023-01-28T10:15:05.314Z,84.27
2023-01-28T10:16:05.581Z,84.38
2023-01-28T10:17:05.867Z,83.65
2023-01-28T10:18:16.511Z,84.34
2023-01-28T10:19:06.432Z,83.92
2023-01-28T10:20:06.647Z,83.09
2023-01-28T10:21:06.867Z,83.20
2023-01-28T10:22:07.112Z,83.05
2023-01-28T10:23:07.370Z,82.12
2023-01-28T10:24:07.679Z,82.01
2023-01-28T10:25:07.879Z,82.53
2023-01-28T10:26:08.220Z,82.32
2023-01-28T10:27:08.374Z,82.50
2023-01-28T10:28:08.618Z,82.29
2023-01-28T10:29:08.862Z,82.50
2023-01-28T10:30:09.104Z,82.81
2023-01-28T10:31:09.461Z,82.50
2023-01-28T10:32:09.587Z,82.60
2023-01-28T10:33:09.827Z,82.46
2023-01-28T10:34:10.068Z,81.84
2023-01-28T10:35:10.340Z,81.46
2023-01-28T10:36:10.564Z,81.84
2023-01-28T10:37:10.787Z,81.28
2023-01-28T10:38:11.044Z,81.42
2023-01-28T10:39:11.262Z,81.07
2023-01-28T10:40:11.519Z,81.49
2023-01-28T10:41:11.768Z,80.93
2023-01-28T10:42:11.982Z,80.83
2023-01-28T10:43:12.216Z,80.73
2023-01-28T10:44:12.484Z,80.99
2023-01-28T10:45:12.696Z,80.93
2023-01-28T10:46:12.970Z,80.68
2023-01-28T10:47:13.151Z,80.68
2023-01-28T10:48:13.427Z,79.85
2023-01-28T10:49:13.604Z,79.96
2023-01-28T10:50:14.225Z,79.55
2023-01-28T10:51:14.047Z,79.65
2023-01-28T10:52:14.273Z,79.55
2023-01-28T10:53:14.558Z,79.92
2023-01-28T10:54:14.740Z,80.54
2023-01-28T10:55:14.962Z,80.65
2023-01-28T10:56:15.196Z,80.75
2023-01-28T10:57:15.432Z,80.61
2023-01-28T10:58:15.918Z,80.30
2023-01-28T10:59:15.912Z,80.36
2023-01-28T11:00:16.504Z,80.47
2023-01-28T11:01:16.503Z,79.54
2023-01-28T11:02:16.685Z,79.54
2023-01-28T11:03:16.926Z,79.54
2023-01-28T11:04:17.137Z,78.57
2023-01-28T11:05:17.479Z,78.36
2023-01-28T11:06:17.633Z,78.47
2023-01-28T11:07:17.865Z,78.67
2023-01-28T11:08:18.137Z,78.85
2023-01-28T11:09:18.348Z,79.19
2023-01-28T11:10:18.605Z,78.78
2023-01-28T11:11:18.813Z,78.88
2023-01-28T11:12:19.036Z,78.57
2023-01-28T11:13:19.292Z,77.95
2023-01-28T11:14:19.501Z,78.05
2023-01-28T11:15:19.751Z,78.61
2023-01-28T11:16:19.993Z,77.98
2023-01-28T11:17:20.270Z,78.26
2023-01-28T11:18:20.539Z,78.78
2023-01-28T11:19:20.712Z,78.61
2023-01-28T11:20:21.015Z,78.92
2023-01-28T11:21:21.233Z,79.54
2023-01-28T11:22:21.485Z,79.13
2023-01-28T11:23:21.762Z,79.30
2023-01-28T11:24:22.120Z,78.99
2023-01-28T11:25:22.207Z,79.09
2023-01-28T11:26:22.455Z,78.88
2023-01-28T11:27:22.731Z,79.19
2023-01-28T11:28:22.920Z,79.40
2023-01-28T11:29:23.168Z,79.60
2023-01-28T11:30:23.405Z,79.71
2023-01-28T11:31:23.668Z,78.78
2023-01-28T11:32:24.045Z,79.09
2023-01-28T11:33:24.176Z,79.19
2023-01-28T11:34:24.438Z,78.67
2023-01-28T11:35:24.705Z,78.16
2023-01-28T11:36:24.836Z,77.64
2023-01-28T11:37:25.092Z,78.05
2023-01-28T11:38:25.304Z,77.95
2023-01-28T11:39:25.533Z,77.36
2023-01-28T11:40:25.941Z,77.36
2023-01-28T11:41:26.004Z,78.19
2023-01-28T11:42:26.233Z,78.71
2023-01-28T11:43:26.499Z,78.61
2023-01-28T11:44:26.705Z,78.92
2023-01-28T11:45:27.016Z,79.54
2023-01-28T11:46:27.191Z,79.54
2023-01-28T11:47:27.421Z,79.54
2023-01-28T11:48:27.649Z,79.74
2023-01-28T11:49:27.933Z,79.33
2023-01-28T11:50:28.146Z,78.81
2023-01-28T11:51:28.367Z,79.06
2023-01-28T11:52:38.787Z,78.85
2023-01-28T11:53:28.862Z,79.27
2023-01-28T11:54:29.136Z,78.85
2023-01-28T11:55:29.377Z,78.75
2023-01-28T11:56:29.587Z,79.06
2023-01-28T11:57:29.825Z,79.13
2023-01-28T11:58:30.099Z,79.54
2023-01-28T11:59:30.311Z,80.26
2023-01-28T12:00:30.597Z,79.95
2023-01-28T12:01:30.808Z,80.16
2023-01-28T12:02:31.144Z,80.33
2023-01-28T12:03:31.367Z,80.43
2023-01-28T12:04:31.641Z,79.40
2023-01-28T12:05:31.857Z,79.77
2023-01-28T12:06:33.309Z,79.77
2023-01-28T12:07:32.313Z,79.19
2023-01-28T12:08:32.534Z,78.64
2023-01-28T12:09:32.799Z,78.64
2023-01-28T12:10:33.011Z,79.05
2023-01-28T12:11:33.248Z,79.16
2023-01-28T12:12:33.501Z,79.47
2023-01-28T12:13:33.727Z,79.57
2023-01-28T12:14:33.958Z,79.47
2023-01-28T12:15:34.286Z,79.26
2023-01-28T12:16:34.374Z,79.26
2023-01-28T12:17:34.597Z,78.74
2023-01-28T12:18:34.817Z,79.16
2023-01-28T12:19:35.074Z,79.57
2023-01-28T12:20:35.476Z,78.95
2023-01-28T12:21:35.490Z,78.74
2023-01-28T12:22:35.731Z,79.57
2023-01-28T12:23:35.938Z,79.57
2023-01-28T12:24:36.163Z,79.57
2023-01-28T12:25:36.691Z,78.85
2023-01-28T12:26:36.617Z,78.33
2023-01-28T12:27:36.832Z,78.85
2023-01-28T12:28:37.056Z,78.64
2023-01-28T12:29:37.305Z,78.74
2023-01-28T12:30:37.552Z,79.26
2023-01-28T12:31:37.929Z,80.08
2023-01-28T12:32:37.977Z,80.29
2023-01-28T12:33:38.210Z,80.40
2023-01-28T12:34:38.439Z,79.16
2023-01-28T12:35:38.971Z,79.19
2023-01-28T12:36:38.903Z,79.09
2023-01-28T12:37:39.129Z,79.71
2023-01-28T12:38:39.355Z,80.02
2023-01-28T12:39:39.583Z,80.29
2023-01-28T12:40:39.831Z,80.02
2023-01-28T12:41:40.023Z,80.29
2023-01-28T12:42:40.249Z,80.08
2023-01-28T12:43:40.469Z,79.77
2023-01-28T12:44:40.822Z,80.29
2023-01-28T12:45:41.063Z,80.50
2023-01-28T12:46:41.123Z,80.64
2023-01-28T12:47:41.349Z,80.74
2023-01-28T12:48:41.538Z,80.74
2023-01-28T12:49:41.736Z,80.74
2023-01-28T12:50:42.111Z,80.33
2023-01-28T12:51:42.195Z,80.26
2023-01-28T12:52:42.424Z,80.26
2023-01-28T12:53:42.653Z,80.57
2023-01-28T12:54:42.880Z,80.99
2023-01-28T12:55:43.138Z,80.78